Time;durP1;ratioP1;P1;durP2;ratioP2;P2;SDS_P1;SDS_P2;PMS_P1;PMS_P2;Temp;Humidity;BMP_temperature;BMP_pressure;BME280_temperature;BME280_humidity;BME280_pressure;Samples;Min_cycle;Max_cycle;Signal;HPM_P1;HPM_P2
2022/06/28 00:01:03;;;;;;;6.40;5.90;;;;;;;15.80;100.00;97433.06;4991190;28;20204;-65
2022/06/28 00:03:31;;;;;;;5.70;5.30;;;;;;;15.62;100.00;97429.22;5027085;28;21014;-65
2022/06/28 00:06:01;;;;;;;5.70;5.30;;;;;;;15.53;100.00;97430.47;5034045;28;20223;-65
2022/06/28 00:08:29;;;;;;;5.53;5.13;;;;;;;15.56;100.00;97432.75;5030810;28;20275;-65
2022/06/28 00:10:58;;;;;;;6.27;5.77;;;;;;;15.72;100.00;97428.75;5017248;28;20315;-65
2022/06/28 00:13:27;;;;;;;6.23;5.83;;;;;;;15.72;100.00;97416.25;5030751;28;20608;-65
2022/06/28 00:16:06;;;;;;;5.50;5.10;;;;;;;15.77;100.00;97420.97;4997956;28;20794;-65
2022/06/28 00:18:36;;;;;;;6.00;5.60;;;;;;;15.70;100.00;97420.97;5028258;28;20203;-65
2022/06/28 00:21:07;;;;;;;5.83;5.43;;;;;;;15.64;100.00;97419.16;5032820;28;20227;-66
2022/06/28 00:23:36;;;;;;;6.50;6.00;;;;;;;15.73;100.00;97425.91;5029263;28;20984;-65
2022/06/28 00:26:04;;;;;;;5.70;5.30;;;;;;;15.83;100.00;97425.47;5031361;28;20283;-64
2022/06/28 00:28:33;;;;;;;5.63;5.23;;;;;;;15.73;100.00;97420.56;5014660;28;20207;-65
2022/06/28 00:31:02;;;;;;;5.20;4.80;;;;;;;15.57;100.00;97418.38;4996368;28;20295;-65
2022/06/28 00:33:30;;;;;;;5.90;5.50;;;;;;;15.49;100.00;97424.75;5026053;28;20879;-64
2022/06/28 00:35:58;;;;;;;5.87;5.47;;;;;;;15.40;100.00;97426.81;5029308;28;20656;-65
2022/06/28 00:38:28;;;;;;;5.57;5.17;;;;;;;15.43;100.00;97428.25;5023157;28;20227;-64
2022/06/28 00:40:58;;;;;;;4.90;4.50;;;;;;;15.46;100.00;97433.19;5030381;28;20231;-64
2022/06/28 00:43:26;;;;;;;5.77;5.37;;;;;;;15.43;100.00;97436.28;5010005;28;20257;-65
2022/06/28 00:45:54;;;;;;;5.80;5.50;;;;;;;15.28;100.00;97441.84;4997366;28;20310;-65
2022/06/28 00:48:22;;;;;;;5.70;5.30;;;;;;;15.13;100.00;97453.53;5026852;28;20208;-65
2022/06/28 00:50:51;;;;;;;5.23;4.83;;;;;;;15.11;100.00;97452.13;5031425;28;20613;-65
2022/06/28 00:53:19;;;;;;;5.70;5.30;;;;;;;15.21;100.00;97455.19;5029971;28;20792;-65
2022/06/28 00:55:49;;;;;;;5.73;5.43;;;;;;;15.04;100.00;97466.28;5031960;28;20307;-65
2022/06/28 00:58:18;;;;;;;5.83;5.43;;;;;;;15.22;100.00;97466.69;5013785;28;20218;-63
2022/06/28 01:00:48;;;;;;;5.73;5.43;;;;;;;15.12;100.00;97475.09;4997350;28;20211;-65
2022/06/28 01:03:17;;;;;;;5.83;5.43;;;;;;;15.16;100.00;97479.00;5025663;28;20223;-64
2022/06/28 01:05:46;;;;;;;6.37;5.97;;;;;;;15.14;100.00;97478.38;4994537;28;21976;-65
2022/06/28 01:08:14;;;;;;;6.33;5.70;;;;;;;15.05;100.00;97480.44;5014368;28;20290;-65
2022/06/28 01:10:42;;;;;;;5.97;5.57;;;;;;;14.99;100.00;97474.09;5027738;28;20223;-64
2022/06/28 01:13:12;;;;;;;5.90;5.40;;;;;;;14.92;100.00;97478.59;5029339;28;20971;-65
2022/06/28 01:15:41;;;;;;;6.17;5.77;;;;;;;14.90;100.00;97483.31;5010410;28;20338;-65
2022/06/28 01:18:10;;;;;;;5.90;5.37;;;;;;;15.04;100.00;97492.13;5029546;28;20208;-66
2022/06/28 01:20:41;;;;;;;6.93;5.70;;;;;;;15.03;100.00;97496.66;4997992;28;20230;-64
2022/06/28 01:23:10;;;;;;;5.67;5.17;;;;;;;15.08;100.00;97498.72;5027958;28;20338;-65
2022/06/28 01:25:39;;;;;;;8.47;6.40;;;;;;;15.05;100.00;97499.94;5025021;28;20224;-63
2022/06/28 01:28:07;;;;;;;6.53;6.03;;;;;;;15.24;100.00;97508.16;5030250;28;20288;-64
2022/06/28 01:30:36;;;;;;;7.07;6.37;;;;;;;15.00;100.00;97501.59;5014287;28;20724;-65
2022/06/28 01:33:04;;;;;;;6.43;5.93;;;;;;;15.05;100.00;97507.13;5030489;28;20199;-66
2022/06/28 01:35:33;;;;;;;6.53;6.03;;;;;;;15.05;100.00;97504.47;5008491;28;20255;-62
2022/06/28 01:38:03;;;;;;;6.93;6.33;;;;;;;15.15;100.00;97506.72;5017302;28;20204;-64
2022/06/28 01:40:32;;;;;;;6.50;6.10;;;;;;;15.02;100.00;97500.38;5029017;28;20617;-64
2022/06/28 01:43:01;;;;;;;7.20;6.60;;;;;;;14.96;100.00;97506.50;5028742;28;20251;-66
2022/06/28 01:45:30;;;;;;;6.93;6.40;;;;;;;14.92;100.00;97501.78;5019347;28;20227;-62
2022/06/28 01:47:58;;;;;;;6.90;6.30;;;;;;;14.79;100.00;97510.59;5022151;28;20204;-65
2022/06/28 01:50:26;;;;;;;6.33;5.63;;;;;;;14.72;100.00;97503.41;5028411;28;21241;-64
2022/06/28 01:52:54;;;;;;;6.33;5.83;;;;;;;14.73;100.00;97499.72;4998421;28;20900;-66
2022/06/28 01:55:23;;;;;;;6.57;5.97;;;;;;;14.81;100.00;97506.72;5028659;28;20658;-66
2022/06/28 01:57:52;;;;;;;7.03;6.43;;;;;;;14.78;100.00;97509.78;5026772;28;20854;-65
2022/06/28 02:00:20;;;;;;;6.33;5.93;;;;;;;14.71;100.00;97516.94;5029521;28;20266;-64
2022/06/28 02:02:48;;;;;;;7.13;6.60;;;;;;;14.68;100.00;97523.47;5011263;28;20238;-65
2022/06/28 02:05:17;;;;;;;6.90;6.23;;;;;;;14.70;100.00;97521.47;5028986;28;20223;-65
2022/06/28 02:07:49;;;;;;;7.40;6.73;;;;;;;14.80;100.00;97520.22;4991730;28;20551;-65
2022/06/28 02:10:17;;;;;;;6.57;6.10;;;;;;;14.61;100.00;97515.44;5027016;28;20199;-65
2022/06/28 02:12:46;;;;;;;7.23;6.73;;;;;;;14.56;100.00;97512.56;5028043;28;20206;-65
2022/06/28 02:15:16;;;;;;;6.50;6.00;;;;;;;14.72;100.00;97529.25;5035215;28;20330;-64
2022/06/28 02:17:45;;;;;;;7.10;6.50;;;;;;;14.59;100.00;97517.50;5016107;28;20227;-64
2022/06/28 02:20:14;;;;;;;7.30;6.80;;;;;;;14.58;100.00;97520.34;5031837;28;20910;-66
2022/06/28 02:22:42;;;;;;;7.53;6.93;;;;;;;14.56;100.00;97517.06;5000792;28;21176;-62
2022/06/28 02:25:11;;;;;;;7.10;6.60;;;;;;;14.55;100.00;97520.75;5031325;28;20214;-65
2022/06/28 02:27:39;;;;;;;7.37;6.77;;;;;;;14.43;100.00;97516.03;5030561;28;20255;-64
2022/06/28 02:30:08;;;;;;;7.63;6.93;;;;;;;14.41;100.00;97511.94;5032417;28;20192;-65
2022/06/28 02:32:38;;;;;;;8.53;6.17;;;;;;;14.44;100.00;97509.66;5014528;28;20215;-62
2022/06/28 02:40:39;;;;;;;8.43;7.50;;;;;;;14.57;100.00;97510.72;5000641;28;20321;-65
2022/06/28 02:43:07;;;;;;;7.70;7.10;;;;;;;14.58;100.00;97525.69;5034387;28;20286;-65
2022/06/28 02:45:36;;;;;;;8.33;7.63;;;;;;;14.63;100.00;97515.25;5029287;28;20297;-63
2022/06/28 02:48:07;;;;;;;8.53;7.83;;;;;;;14.63;100.00;97523.25;5018391;28;20794;-64
2022/06/28 02:50:35;;;;;;;8.33;7.63;;;;;;;14.48;100.00;97521.56;5029026;28;20454;-64
2022/06/28 02:53:03;;;;;;;6.83;6.37;;;;;;;14.45;100.00;97529.16;5032839;28;20227;-64
2022/06/28 02:55:31;;;;;;;7.93;7.33;;;;;;;14.47;100.00;97524.44;4995540;28;20414;-62
2022/06/28 02:57:59;;;;;;;8.00;7.30;;;;;;;14.38;100.00;97525.63;5032215;28;20704;-65
2022/06/28 03:00:43;;;;;;;7.50;6.90;;;;;;;14.40;100.00;97523.63;5015054;28;20210;-63
2022/06/28 03:03:13;;;;;;;7.20;6.70;;;;;;;14.28;100.00;97520.69;5006487;28;20719;-64
2022/06/28 03:05:42;;;;;;;7.20;6.60;;;;;;;14.15;100.00;97526.78;5028759;28;20731;-64
2022/06/28 03:08:10;;;;;;;7.57;7.07;;;;;;;14.16;100.00;97523.09;5030784;28;20203;-61
2022/06/28 03:10:38;;;;;;;8.77;7.30;;;;;;;14.22;100.00;97522.31;4980083;28;20857;-64
2022/06/28 03:13:07;;;;;;;7.73;7.03;;;;;;;14.26;100.00;97515.56;4973113;28;21675;-65
2022/06/28 03:15:35;;;;;;;7.33;6.70;;;;;;;14.22;100.00;97514.31;5031995;28;20215;-62
2022/06/28 03:18:04;;;;;;;8.43;7.83;;;;;;;14.19;100.00;97509.38;5029504;28;20717;-64
2022/06/28 03:20:33;;;;;;;8.40;7.80;;;;;;;14.12;100.00;97522.66;5032181;28;20730;-64
2022/06/28 03:23:01;;;;;;;8.77;8.13;;;;;;;14.08;100.00;97526.75;5027171;28;20234;-64
2022/06/28 03:25:30;;;;;;;11.13;8.57;;;;;;;14.04;100.00;97525.50;5032278;28;20251;-65
2022/06/28 03:27:58;;;;;;;8.40;7.70;;;;;;;14.15;100.00;97530.25;4977073;28;20780;-66
2022/06/28 03:30:26;;;;;;;9.83;7.93;;;;;;;14.29;100.00;97523.16;5028020;28;20208;-66
2022/06/28 03:32:54;;;;;;;8.90;8.10;;;;;;;14.15;100.00;97516.13;5025872;28;20227;-64
2022/06/28 03:35:22;;;;;;;8.73;8.03;;;;;;;14.12;100.00;97517.34;5032754;28;20643;-62
2022/06/28 03:37:52;;;;;;;8.50;7.70;;;;;;;14.15;100.00;97521.47;5028882;28;20755;-62
2022/06/28 03:40:20;;;;;;;8.40;7.80;;;;;;;14.07;100.00;97519.78;5031757;28;20847;-63
2022/06/28 03:42:48;;;;;;;9.20;8.40;;;;;;;14.03;100.00;97521.19;5024155;28;20695;-62
2022/06/28 03:45:17;;;;;;;8.30;7.80;;;;;;;14.08;100.00;97524.09;4984190;28;20318;-63
2022/06/28 03:47:45;;;;;;;8.80;8.03;;;;;;;13.96;100.00;97526.47;5028370;28;20203;-63
2022/06/28 03:50:13;;;;;;;8.23;7.50;;;;;;;13.95;100.00;97532.03;5029942;28;20309;-62
2022/06/28 03:52:41;;;;;;;8.43;7.63;;;;;;;13.92;100.00;97533.22;5028606;28;20211;-60
2022/06/28 03:55:11;;;;;;;9.70;8.70;;;;;;;13.98;100.00;97536.94;5030928;28;20208;-65
2022/06/28 03:57:40;;;;;;;8.97;8.13;;;;;;;14.02;100.00;97530.22;5029816;28;20253;-59
2022/06/28 04:00:09;;;;;;;10.10;9.10;;;;;;;13.85;100.00;97527.88;4963212;28;20997;-64
2022/06/28 04:02:37;;;;;;;9.00;8.30;;;;;;;13.89;100.00;97534.47;5029595;28;20265;-60
2022/06/28 04:05:06;;;;;;;8.57;7.87;;;;;;;14.08;100.00;97536.59;5030048;28;20363;-62
2022/06/28 04:07:34;;;;;;;9.73;8.40;;;;;;;13.96;100.00;97539.81;5019334;28;20634;-59
2022/06/28 04:10:03;;;;;;;9.20;8.47;;;;;;;13.92;100.00;97529.75;5029476;28;20243;-63
2022/06/28 04:12:32;;;;;;;8.83;8.13;;;;;;;14.01;100.00;97536.56;5029111;28;20215;-63
2022/06/28 04:15:00;;;;;;;8.83;7.97;;;;;;;14.01;100.00;97541.88;4978328;28;20733;-63
2022/06/28 04:17:29;;;;;;;9.47;8.63;;;;;;;14.00;100.00;97532.25;5030317;28;20287;-62
2022/06/28 04:19:57;;;;;;;9.93;9.03;;;;;;;14.05;100.00;97529.81;5025916;28;20306;-63
2022/06/28 04:22:25;;;;;;;9.23;8.47;;;;;;;14.04;100.00;97529.00;5013843;28;20234;-62
2022/06/28 04:24:53;;;;;;;10.43;9.00;;;;;;;14.14;100.00;97530.47;5027921;28;20783;-55
2022/06/28 04:27:21;;;;;;;10.07;9.13;;;;;;;14.24;100.00;97527.44;5004821;28;20334;-62
2022/06/28 04:29:50;;;;;;;11.50;10.43;;;;;;;14.38;100.00;97536.28;4985540;28;20321;-60
2022/06/28 04:32:18;;;;;;;12.53;11.40;;;;;;;14.41;100.00;97547.38;5029423;28;20695;-64
2022/06/28 04:34:47;;;;;;;11.30;10.30;;;;;;;14.58;100.00;97547.00;5007998;28;20204;-61
2022/06/28 04:37:15;;;;;;;12.73;10.77;;;;;;;14.78;100.00;97544.47;5007833;28;20569;-58
2022/06/28 04:39:43;;;;;;;12.00;11.00;;;;;;;14.75;100.00;97556.34;5022521;28;20532;-61
2022/06/28 04:42:11;;;;;;;11.60;10.43;;;;;;;14.81;100.00;97548.56;5027506;28;20254;-60
2022/06/28 04:44:39;;;;;;;11.70;10.40;;;;;;;14.92;100.00;97552.47;4987817;28;20677;-61
2022/06/28 04:47:09;;;;;;;10.97;10.10;;;;;;;15.16;100.00;97551.06;5028369;28;20319;-58
2022/06/28 04:49:37;;;;;;;11.37;10.37;;;;;;;15.16;100.00;97554.56;5009340;28;20215;-60
2022/06/28 04:52:06;;;;;;;11.57;10.47;;;;;;;15.37;100.00;97549.22;4981483;28;20747;-59
2022/06/28 04:54:35;;;;;;;11.67;10.57;;;;;;;15.51;100.00;97553.53;5030135;28;20191;-59
2022/06/28 04:57:03;;;;;;;10.47;9.57;;;;;;;15.65;100.00;97551.66;5028613;28;20535;-57
2022/06/28 04:59:31;;;;;;;11.30;10.43;;;;;;;15.73;100.00;97553.31;5027798;28;20231;-59
2022/06/28 05:01:59;;;;;;;10.80;9.90;;;;;;;15.95;100.00;97543.22;4982419;28;20247;-61
2022/06/28 05:04:29;;;;;;;10.93;9.40;;;;;;;16.03;100.00;97544.81;5031530;28;20203;-61
2022/06/28 05:06:57;;;;;;;9.20;8.47;;;;;;;15.90;100.00;97537.66;5025467;28;20500;-59
2022/06/28 05:09:25;;;;;;;8.83;8.00;;;;;;;15.89;100.00;97528.00;5030069;28;20533;-59
2022/06/28 05:12:03;;;;;;;8.53;7.97;;;;;;;16.05;100.00;97532.91;5024655;28;20755;-60
2022/06/28 05:14:31;;;;;;;8.10;7.30;;;;;;;16.14;100.00;97530.00;5030327;28;20261;-59
2022/06/28 05:16:59;;;;;;;7.90;7.17;;;;;;;16.40;100.00;97536.28;4981213;28;20471;-59
2022/06/28 05:19:30;;;;;;;7.13;6.73;;;;;;;16.43;100.00;97525.94;5030647;28;20772;-60
2022/06/28 05:21:58;;;;;;;6.70;6.20;;;;;;;16.63;100.00;97520.50;4959316;28;21241;-59
2022/06/28 05:24:26;;;;;;;7.00;6.50;;;;;;;16.68;100.00;97525.22;5031826;28;20220;-58
2022/06/28 05:26:54;;;;;;;6.97;6.47;;;;;;;16.88;100.00;97510.91;5027643;28;20219;-60
2022/06/28 05:29:22;;;;;;;6.97;6.40;;;;;;;16.83;100.00;97506.19;5011050;28;20275;-61
2022/06/28 05:31:50;;;;;;;6.83;6.30;;;;;;;16.91;100.00;97513.94;5026163;28;20733;-57
2022/06/28 05:34:19;;;;;;;7.73;6.40;;;;;;;17.01;100.00;97510.81;5031509;28;20226;-62
2022/06/28 05:36:48;;;;;;;6.37;5.83;;;;;;;17.20;100.00;97509.03;4984372;28;20231;-58
2022/06/28 05:39:17;;;;;;;6.47;5.97;;;;;;;17.08;100.00;97505.44;5029371;28;20227;-58
2022/06/28 05:41:45;;;;;;;7.13;6.43;;;;;;;17.16;100.00;97507.00;5027319;28;20291;-55
2022/06/28 05:44:14;;;;;;;6.10;5.70;;;;;;;17.25;100.00;97504.88;5010998;28;20262;-59
2022/06/28 05:46:43;;;;;;;5.77;5.37;;;;;;;17.49;100.00;97517.44;5028573;28;20238;-58
2022/06/28 05:49:12;;;;;;;6.60;6.17;;;;;;;17.60;100.00;97523.91;5033845;28;20199;-61
2022/06/28 05:51:40;;;;;;;6.00;5.60;;;;;;;17.62;100.00;97515.66;4985362;28;20703;-57
2022/06/28 05:54:10;;;;;;;5.50;5.20;;;;;;;17.74;100.00;97516.56;5032258;28;20444;-60
2022/06/28 05:56:38;;;;;;;6.83;6.30;;;;;;;17.90;100.00;97528.56;5034087;28;20421;-58
2022/06/28 05:59:06;;;;;;;6.63;6.13;;;;;;;17.93;100.00;97528.13;5010991;28;20451;-59
2022/06/28 06:01:34;;;;;;;7.27;6.57;;;;;;;17.92;100.00;97523.78;5034349;28;20227;-56
2022/06/28 06:04:03;;;;;;;6.40;5.90;;;;;;;17.94;100.00;97526.25;5030626;28;20320;-61
2022/06/28 06:06:31;;;;;;;6.87;6.27;;;;;;;18.05;100.00;97536.25;4983282;28;20825;-61
2022/06/28 06:08:59;;;;;;;6.27;5.77;;;;;;;18.07;100.00;97541.41;5031790;28;20483;-60
2022/06/28 06:11:28;;;;;;;6.83;5.97;;;;;;;18.04;100.00;97525.78;5032653;28;20211;-61
2022/06/28 06:13:57;;;;;;;6.33;5.73;;;;;;;18.32;100.00;97533.28;5012298;28;20281;-60
2022/06/28 06:16:25;;;;;;;7.60;6.90;;;;;;;18.26;100.00;97526.13;5033592;28;20227;-58
2022/06/28 06:18:53;;;;;;;6.30;5.90;;;;;;;18.50;100.00;97539.66;5030367;28;20279;-59
2022/06/28 06:21:21;;;;;;;6.63;6.07;;;;;;;18.83;100.00;97527.63;5032812;28;20196;-62
2022/06/28 06:23:49;;;;;;;5.93;5.63;;;;;;;19.22;100.00;97524.63;4994865;28;20224;-58
2022/06/28 06:26:17;;;;;;;5.87;5.57;;;;;;;19.52;100.00;97524.50;5035569;28;20593;-62
2022/06/28 06:28:47;;;;;;;5.90;5.40;;;;;;;19.74;100.00;97523.09;5013670;28;20219;-58
2022/06/28 06:31:15;;;;;;;5.33;4.93;;;;;;;19.88;100.00;97518.31;5030282;28;20265;-62
2022/06/28 06:33:43;;;;;;;6.10;5.60;;;;;;;20.23;100.00;97520.94;5032061;28;21098;-57
2022/06/28 06:36:11;;;;;;;6.27;5.87;;;;;;;20.03;100.00;97515.97;5034056;28;20789;-60
2022/06/28 06:38:39;;;;;;;7.33;5.60;;;;;;;20.34;100.00;97510.41;4997013;28;20687;-59
2022/06/28 06:41:07;;;;;;;5.93;5.53;;;;;;;20.65;100.00;97502.91;5030837;28;20486;-62
2022/06/28 06:43:36;;;;;;;5.90;5.50;;;;;;;20.99;100.00;97502.97;5033522;28;20263;-58
2022/06/28 06:46:05;;;;;;;5.30;5.00;;;;;;;21.32;100.00;97501.34;5020344;28;20227;-62
2022/06/28 06:48:33;;;;;;;5.40;5.10;;;;;;;21.15;100.00;97497.84;5033385;28;20309;-60
2022/06/28 06:51:02;;;;;;;5.97;5.47;;;;;;;20.68;100.00;97505.91;5032088;28;20425;-62
2022/06/28 06:53:30;;;;;;;5.40;5.10;;;;;;;20.94;100.00;97492.09;4997532;28;20215;-63
2022/06/28 06:55:58;;;;;;;5.77;5.37;;;;;;;20.84;100.00;97494.63;5029429;28;20222;-62
2022/06/28 06:58:26;;;;;;;5.80;5.40;;;;;;;20.87;100.00;97489.59;5032957;28;20307;-62
2022/06/28 07:00:55;;;;;;;6.67;6.13;;;;;;;21.13;100.00;97483.81;5015171;28;20424;-61
2022/06/28 07:03:24;;;;;;;6.07;5.57;;;;;;;21.20;100.00;97487.94;5033265;28;20271;-63
2022/06/28 07:05:52;;;;;;;5.83;5.23;;;;;;;21.34;100.00;97491.13;5026497;28;20429;-60
2022/06/28 07:08:21;;;;;;;7.00;6.33;;;;;;;21.00;100.00;97501.91;5030834;28;20245;-60
2022/06/28 07:10:49;;;;;;;6.70;5.80;;;;;;;21.24;100.00;97489.13;5000058;28;20215;-60
2022/06/28 07:13:17;;;;;;;5.10;4.73;;;;;;;21.20;100.00;97493.34;5032873;28;20204;-61
2022/06/28 07:15:45;;;;;;;5.77;5.27;;;;;;;21.24;100.00;97499.06;5017502;28;20734;-60
2022/06/28 07:18:13;;;;;;;6.83;6.23;;;;;;;21.37;100.00;97506.81;5031729;28;22052;-62
2022/06/28 07:20:43;;;;;;;6.67;6.13;;;;;;;22.21;100.00;97506.91;5032890;28;20646;-59
2022/06/28 07:23:11;;;;;;;6.70;6.20;;;;;;;22.70;100.00;97511.50;5032652;28;20583;-62
2022/06/28 07:25:46;;;;;;;6.43;5.93;;;;;;;22.39;100.00;97513.03;4991182;28;20699;-59
2022/06/28 07:28:15;;;;;;;5.30;4.90;;;;;;;22.24;100.00;97519.06;4983458;28;20956;-60
2022/06/28 07:30:44;;;;;;;6.90;6.27;;;;;;;22.37;100.00;97520.56;5032198;28;20560;-62
2022/06/28 07:33:12;;;;;;;6.47;5.97;;;;;;;22.37;100.00;97518.69;5013550;28;20495;-61
2022/06/28 07:35:40;;;;;;;6.73;6.17;;;;;;;22.23;100.00;97520.97;5031282;28;20557;-62
2022/06/28 07:38:10;;;;;;;6.60;5.47;;;;;;;22.11;100.00;97517.56;5013251;28;20644;-57
2022/06/28 07:40:38;;;;;;;5.97;5.57;;;;;;;21.60;100.00;97525.75;5030546;28;20339;-62
2022/06/28 07:43:08;;;;;;;6.23;5.83;;;;;;;21.38;100.00;97530.00;4995869;28;20305;-59
2022/06/28 07:45:39;;;;;;;6.23;5.83;;;;;;;21.69;100.00;97517.00;5030486;28;20503;-62
2022/06/28 07:48:08;;;;;;;5.60;5.20;;;;;;;21.79;100.00;97518.25;5027153;28;20624;-58
2022/06/28 07:53:24;;;;;;;5.77;5.27;;;;;;;21.68;100.00;97520.78;5014738;28;20757;-61
2022/06/28 07:55:52;;;;;;;6.30;5.70;;;;;;;21.39;100.00;97528.94;5027253;28;20722;-57
2022/06/28 07:58:23;;;;;;;5.70;5.20;;;;;;;21.75;100.00;97520.59;5026572;28;20695;-60
2022/06/28 08:00:51;;;;;;;5.70;5.37;;;;;;;21.39;100.00;97517.34;4990875;28;20686;-57
2022/06/28 08:03:19;;;;;;;5.70;5.40;;;;;;;21.49;100.00;97524.78;5027733;28;20879;-60
2022/06/28 08:05:47;;;;;;;5.67;5.27;;;;;;;21.68;100.00;97518.06;5030823;28;20699;-61
2022/06/28 08:08:16;;;;;;;4.50;4.20;;;;;;;22.47;100.00;97523.41;5015513;28;20305;-59
2022/06/28 08:10:46;;;;;;;5.57;5.17;;;;;;;23.23;100.00;97531.69;5030948;28;20207;-62
2022/06/28 08:13:15;;;;;;;5.00;4.60;;;;;;;23.04;100.00;97532.09;5028197;28;20617;-62
2022/06/28 08:15:44;;;;;;;4.97;4.57;;;;;;;22.76;100.00;97533.97;4990028;28;20765;-60
2022/06/28 08:18:13;;;;;;;5.37;4.97;;;;;;;22.11;100.00;97531.03;5025919;28;20238;-62
2022/06/28 08:20:41;;;;;;;5.67;4.63;;;;;;;21.81;100.00;97518.81;5031527;28;20207;-62
2022/06/28 08:23:09;;;;;;;5.90;5.47;;;;;;;21.64;100.00;97505.34;5027836;28;20207;-60
2022/06/28 08:25:38;;;;;;;6.13;5.63;;;;;;;21.89;100.00;97512.97;5015030;28;20237;-60
2022/06/28 08:28:08;;;;;;;5.97;5.63;;;;;;;21.97;100.00;97515.22;5027099;28;20258;-60
2022/06/28 08:30:36;;;;;;;5.17;4.83;;;;;;;22.03;100.00;97509.91;5031858;28;20709;-62
2022/06/28 08:33:04;;;;;;;5.20;4.83;;;;;;;22.03;100.00;97513.44;4987292;28;20216;-59
2022/06/28 08:35:34;;;;;;;5.30;5.00;;;;;;;21.63;100.00;97514.47;5029425;28;20239;-62
2022/06/28 08:38:04;;;;;;;5.87;5.47;;;;;;;21.62;100.00;97508.25;5029387;28;20273;-58
2022/06/28 08:40:33;;;;;;;5.30;5.00;;;;;;;21.55;100.00;97521.09;5019076;28;20214;-62
2022/06/28 08:43:01;;;;;;;4.90;4.70;;;;;;;21.19;100.00;97525.94;5025686;28;20302;-58
2022/06/28 08:45:34;;;;;;;4.90;4.60;;;;;;;21.10;100.00;97512.03;5030731;28;20726;-62
2022/06/28 08:48:10;;;;;;;5.53;5.03;;;;;;;21.49;100.00;97514.81;5000910;28;20219;-59
2022/06/28 08:50:41;;;;;;;4.80;4.50;;;;;;;21.72;100.00;97510.31;5032372;28;20219;-61
2022/06/28 08:53:10;;;;;;;5.30;4.90;;;;;;;21.74;100.00;97508.19;5024366;28;20204;-59
2022/06/28 08:55:39;;;;;;;5.20;4.90;;;;;;;21.85;100.00;97511.00;5021851;28;20266;-62
2022/06/28 08:58:08;;;;;;;5.83;5.33;;;;;;;22.14;100.00;97522.44;5028691;28;20233;-58
2022/06/28 09:00:38;;;;;;;4.60;4.23;;;;;;;22.60;100.00;97514.09;5031091;28;20231;-60
2022/06/28 09:03:06;;;;;;;4.13;3.93;;;;;;;23.16;100.00;97507.59;4987109;28;20769;-57
2022/06/28 09:05:34;;;;;;;4.33;4.03;;;;;;;22.96;100.00;97517.16;5033094;28;20303;-63
2022/06/28 09:08:03;;;;;;;5.13;4.83;;;;;;;23.09;100.00;97529.44;5027483;28;20223;-59
2022/06/28 09:10:31;;;;;;;5.07;4.70;;;;;;;23.38;100.00;97518.34;5015811;28;20294;-63
2022/06/28 09:13:19;;;;;;;4.93;4.63;;;;;;;23.60;100.00;97519.28;5024121;28;20860;-62
2022/06/28 09:15:53;;;;;;;4.70;4.30;;;;;;;23.69;100.00;97525.84;5026886;28;20742;-59
2022/06/28 09:18:23;;;;;;;4.50;4.20;;;;;;;24.64;100.00;97521.41;5002262;28;20405;-62
2022/06/28 09:20:53;;;;;;;4.47;4.27;;;;;;;25.57;98.70;97518.78;5029354;28;20680;-59
2022/06/28 09:23:30;;;;;;;4.90;4.60;;;;;;;25.60;95.29;97517.44;5030838;28;20288;-63
2022/06/28 09:26:03;;;;;;;4.63;4.33;;;;;;;26.02;93.11;97512.69;5014483;28;20323;-60
2022/06/28 09:28:32;;;;;;;5.10;4.70;;;;;;;26.18;92.10;97507.25;5030162;28;20216;-63
2022/06/28 09:31:18;;;;;;;4.13;3.93;;;;;;;25.52;96.19;97505.22;5005812;28;20290;-58
2022/06/28 09:33:48;;;;;;;4.77;4.47;;;;;;;25.54;99.32;97511.19;5027901;28;20207;-62
2022/06/28 09:36:18;;;;;;;4.63;4.33;;;;;;;25.31;96.14;97512.53;4978081;28;20223;-59
2022/06/28 09:38:46;;;;;;;3.93;3.63;;;;;;;25.78;91.63;97509.78;5026644;28;20647;-62
2022/06/28 09:41:25;;;;;;;4.30;4.00;;;;;;;26.12;88.05;97517.28;5029116;28;20286;-57
2022/06/28 09:43:58;;;;;;;4.57;4.27;;;;;;;25.95;83.13;97512.19;5028116;28;20294;-64
2022/06/28 09:46:29;;;;;;;3.93;3.73;;;;;;;25.95;85.36;97520.31;5026684;28;20223;-59
2022/06/28 09:48:59;;;;;;;4.23;3.90;;;;;;;25.43;87.58;97523.91;5025142;28;20748;-58
2022/06/28 09:51:29;;;;;;;4.00;3.80;;;;;;;25.57;86.34;97517.94;4988412;28;20219;-60
2022/06/28 09:53:59;;;;;;;3.67;3.50;;;;;;;25.95;81.96;97517.59;5028378;28;20203;-61
2022/06/28 09:56:54;;;;;;;3.73;3.53;;;;;;;25.81;83.92;97506.53;5025763;28;20421;-60
2022/06/28 09:59:23;;;;;;;3.73;3.63;;;;;;;25.90;88.50;97488.56;5029949;28;20222;-58
2022/06/28 10:01:55;;;;;;;4.20;4.00;;;;;;;26.66;81.36;97493.13;5030407;28;20672;-62
2022/06/28 10:04:23;;;;;;;3.73;3.43;;;;;;;26.38;83.34;97493.56;5031723;28;20422;-59
2022/06/28 10:06:52;;;;;;;3.40;3.10;;;;;;;27.02;67.85;97492.91;4988835;28;20235;-61
2022/06/28 10:09:22;;;;;;;3.67;3.37;;;;;;;27.08;67.15;97489.03;5027393;28;20626;-59
2022/06/28 10:17:35;;;;;;;3.40;3.10;;;;;;;26.83;65.97;97473.72;5031995;28;20635;-59
2022/06/28 10:20:06;;;;;;;3.37;3.17;;;;;;;26.30;61.96;97462.38;5028714;28;20246;-62
2022/06/28 10:22:34;;;;;;;2.60;2.50;;;;;;;26.09;63.45;97463.53;4987890;28;20599;-60
2022/06/28 10:25:04;;;;;;;2.80;2.60;;;;;;;25.30;70.80;97456.69;5028140;28;20359;-62
2022/06/28 10:27:44;;;;;;;3.03;2.93;;;;;;;25.37;69.07;97461.81;5025245;28;20468;-61
2022/06/28 10:30:24;;;;;;;3.30;3.10;;;;;;;24.88;81.47;97447.75;5027432;28;20199;-59
2022/06/28 10:32:56;;;;;;;3.97;3.67;;;;;;;24.71;85.58;97442.56;5029066;28;20491;-62
2022/06/28 10:36:03;;;;;;;3.87;3.57;;;;;;;24.62;89.66;97444.19;5028318;28;20212;-59
2022/06/28 10:38:32;;;;;;;3.73;3.60;;;;;;;24.06;90.56;97426.75;4989568;28;20348;-59
2022/06/28 10:41:14;;;;;;;3.70;3.40;;;;;;;23.45;94.69;97423.47;5032802;28;20273;-61
2022/06/28 10:43:48;;;;;;;4.07;3.70;;;;;;;23.28;100.00;97423.63;5027494;28;20268;-58
2022/06/28 10:46:16;;;;;;;3.30;3.10;;;;;;;23.02;100.00;97404.53;5028851;28;20335;-57
2022/06/28 10:49:11;;;;;;;3.80;3.60;;;;;;;22.88;100.00;97425.78;5031737;28;20556;-61
2022/06/28 10:51:43;;;;;;;4.37;4.07;;;;;;;22.78;100.00;97436.50;5028385;28;20680;-61
2022/06/28 10:54:13;;;;;;;5.40;4.73;;;;;;;22.00;100.00;97424.09;4993404;28;20849;-61
2022/06/28 10:56:42;;;;;;;4.33;3.93;;;;;;;20.83;100.00;97418.41;5030353;28;20943;-60
2022/06/28 10:59:12;;;;;;;4.60;4.30;;;;;;;20.20;100.00;97426.47;5031615;28;20204;-62
2022/06/28 11:01:57;;;;;;;4.33;4.13;;;;;;;19.92;100.00;97414.63;5029380;28;20436;-59
2022/06/28 11:04:29;;;;;;;4.30;4.00;;;;;;;19.86;100.00;97415.56;5030655;28;20656;-57
2022/06/28 11:07:06;;;;;;;4.30;4.10;;;;;;;19.88;100.00;97422.31;5031373;28;20733;-61
2022/06/28 11:09:53;;;;;;;4.50;4.30;;;;;;;20.12;100.00;97422.28;4993405;28;20516;-61
2022/06/28 11:12:22;;;;;;;5.00;4.60;;;;;;;20.35;100.00;97426.72;5030031;28;20235;-58
2022/06/28 11:14:52;;;;;;;4.90;4.30;;;;;;;20.66;100.00;97445.31;5029808;28;20265;-61
2022/06/28 11:17:22;;;;;;;4.60;4.20;;;;;;;21.05;100.00;97442.75;5027117;28;20797;-57
2022/06/28 11:19:54;;;;;;;4.57;4.37;;;;;;;21.48;100.00;97423.41;5032284;28;20500;-58
2022/06/28 11:22:27;;;;;;;4.40;4.10;;;;;;;22.22;100.00;97419.47;5027704;28;20608;-60
2022/06/28 11:24:57;;;;;;;4.27;4.07;;;;;;;22.79;100.00;97400.31;4993598;28;20248;-62
2022/06/28 11:27:25;;;;;;;4.53;4.20;;;;;;;23.36;100.00;97392.59;5029793;28;20698;-57
2022/06/28 11:29:56;;;;;;;3.90;3.70;;;;;;;23.86;100.00;97360.63;5028843;28;20243;-63
2022/06/28 11:32:26;;;;;;;4.20;3.90;;;;;;;24.33;100.00;97350.75;5028945;28;20958;-59
2022/06/28 11:34:58;;;;;;;4.13;3.83;;;;;;;24.62;100.00;97365.66;5032631;28;20207;-62
2022/06/28 11:37:27;;;;;;;4.40;3.73;;;;;;;25.05;100.00;97357.25;5029432;28;20199;-59
2022/06/28 11:39:56;;;;;;;3.63;3.43;;;;;;;25.29;100.00;97360.97;4993569;28;20302;-60
2022/06/28 11:42:24;;;;;;;4.30;4.10;;;;;;;25.52;100.00;97361.47;5029508;28;20276;-61
2022/06/28 11:44:53;;;;;;;3.47;3.37;;;;;;;25.29;100.00;97358.25;4982488;28;20961;-60
2022/06/28 11:47:21;;;;;;;3.37;3.20;;;;;;;25.63;100.00;97364.97;5030989;28;20310;-57
2022/06/28 11:50:11;;;;;;;3.57;3.27;;;;;;;26.18;97.03;97361.44;5026076;28;20420;-58